sensor_id;sensor_type;location;lat;lon;timestamp;pressure;altitude;pressure_sealevel;temperature;humidity
12763;BME280;6445;52.490;13.378;2024-03-08T00:01:52;56295.34;;;-146.10;100.00
12763;BME280;6445;52.490;13.378;2024-03-08T00:04:17;56788.03;;;-146.10;100.00
12763;BME280;6445;52.490;13.378;2024-03-08T00:06:43;57483.13;;;-146.10;100.00
12763;BME280;6445;52.490;13.378;2024-03-08T00:09:11;58238.41;;;-146.10;100.00
12763;BME280;6445;52.490;13.378;2024-03-08T00:11:36;58609.09;;;-146.10;100.00
12763;BME280;6445;52.490;13.378;2024-03-08T00:14:02;58520.94;;;-146.10;100.00
12763;BME280;6445;52.490;13.378;2024-03-08T00:16:27;59190.25;;;-146.10;100.00
12763;BME280;6445;52.490;13.378;2024-03-08T00:18:52;60180.44;;;-146.10;100.00
12763;BME280;6445;52.490;13.378;2024-03-08T00:21:17;60625.47;;;-146.10;100.00
12763;BME280;6445;52.490;13.378;2024-03-08T00:23:43;60425.00;;;-146.10;100.00
12763;BME280;6445;52.490;13.378;2024-03-08T00:26:08;60749.78;;;-146.10;100.00
12763;BME280;6445;52.490;13.378;2024-03-08T00:28:34;60886.13;;;-146.10;100.00
12763;BME280;6445;52.490;13.378;2024-03-08T00:31:02;60858.03;;;-146.10;100.00
12763;BME280;6445;52.490;13.378;2024-03-08T00:33:27;61383.38;;;-146.10;100.00
12763;BME280;6445;52.490;13.378;2024-03-08T00:35:56;62197.59;;;-146.10;100.00
12763;BME280;6445;52.490;13.378;2024-03-08T00:38:21;61983.00;;;-146.10;100.00
12763;BME280;6445;52.490;13.378;2024-03-08T00:40:46;62374.09;;;-146.10;100.00
12763;BME280;6445;52.490;13.378;2024-03-08T00:43:11;62231.69;;;-146.10;100.00
12763;BME280;6445;52.490;13.378;2024-03-08T00:45:37;62065.22;;;-146.10;100.00
12763;BME280;6445;52.490;13.378;2024-03-08T00:48:03;62219.66;;;-146.10;100.00
12763;BME280;6445;52.490;13.378;2024-03-08T00:50:29;63102.25;;;-146.10;100.00
12763;BME280;6445;52.490;13.378;2024-03-08T00:52:54;64271.97;;;-146.10;100.00
12763;BME280;6445;52.490;13.378;2024-03-08T00:55:19;64269.97;;;-146.10;100.00
12763;BME280;6445;52.490;13.378;2024-03-08T00:57:44;64735.53;;;-146.10;100.00
12763;BME280;6445;52.490;13.378;2024-03-08T01:00:10;64324.13;;;-146.10;100.00
12763;BME280;6445;52.490;13.378;2024-03-08T01:02:38;64928.22;;;-146.10;100.00
12763;BME280;6445;52.490;13.378;2024-03-08T01:05:03;65054.66;;;-146.10;100.00
12763;BME280;6445;52.490;13.378;2024-03-08T01:07:31;65315.59;;;-146.10;100.00
12763;BME280;6445;52.490;13.378;2024-03-08T01:09:56;64161.59;;;-146.10;100.00
12763;BME280;6445;52.490;13.378;2024-03-08T01:12:22;63060.09;;;-146.10;100.00
12763;BME280;6445;52.490;13.378;2024-03-08T01:14:47;63443.28;;;-146.10;100.00
12763;BME280;6445;52.490;13.378;2024-03-08T01:17:12;62446.28;;;-146.10;100.00
12763;BME280;6445;52.490;13.378;2024-03-08T01:19:38;62989.91;;;-146.10;100.00
12763;BME280;6445;52.490;13.378;2024-03-08T01:22:03;63948.91;;;-146.10;100.00
12763;BME280;6445;52.490;13.378;2024-03-08T01:24:28;64350.22;;;-146.10;100.00
12763;BME280;6445;52.490;13.378;2024-03-08T01:26:54;64637.19;;;-146.10;100.00
12763;BME280;6445;52.490;13.378;2024-03-08T01:29:19;64731.53;;;-146.10;100.00
12763;BME280;6445;52.490;13.378;2024-03-08T01:31:44;65490.22;;;-146.10;100.00
12763;BME280;6445;52.490;13.378;2024-03-08T01:34:10;65686.94;;;-146.10;100.00
12763;BME280;6445;52.490;13.378;2024-03-08T01:36:35;66357.47;;;-146.10;100.00
12763;BME280;6445;52.490;13.378;2024-03-08T01:39:02;67160.63;;;-146.10;100.00
12763;BME280;6445;52.490;13.378;2024-03-08T01:41:31;66730.91;;;-146.10;100.00
12763;BME280;6445;52.490;13.378;2024-03-08T01:43:57;66933.72;;;-146.10;100.00
12763;BME280;6445;52.490;13.378;2024-03-08T01:46:22;68221.09;;;-146.10;100.00
12763;BME280;6445;52.490;13.378;2024-03-08T01:48:48;67602.44;;;-146.10;100.00
12763;BME280;6445;52.490;13.378;2024-03-08T01:51:15;68198.97;;;-146.10;100.00
12763;BME280;6445;52.490;13.378;2024-03-08T01:53:42;67526.13;;;-146.10;100.00
12763;BME280;6445;52.490;13.378;2024-03-08T01:56:10;67781.19;;;-146.10;100.00
12763;BME280;6445;52.490;13.378;2024-03-08T01:58:38;68086.50;;;-146.10;100.00
12763;BME280;6445;52.490;13.378;2024-03-08T02:01:03;67805.31;;;-146.10;100.00
12763;BME280;6445;52.490;13.378;2024-03-08T02:03:29;69086.91;;;-146.10;100.00
12763;BME280;6445;52.490;13.378;2024-03-08T02:05:56;70626.19;;;-146.10;100.00
12763;BME280;6445;52.490;13.378;2024-03-08T02:08:23;70334.75;;;-146.10;100.00
12763;BME280;6445;52.490;13.378;2024-03-08T02:10:49;71024.16;;;-146.10;100.00
12763;BME280;6445;52.490;13.378;2024-03-08T02:13:14;69834.38;;;-146.10;100.00
12763;BME280;6445;52.490;13.378;2024-03-08T02:15:57;68994.50;;;-146.10;100.00
12763;BME280;6445;52.490;13.378;2024-03-08T02:18:24;69822.31;;;-146.10;100.00
12763;BME280;6445;52.490;13.378;2024-03-08T02:20:53;68799.63;;;-146.10;100.00
12763;BME280;6445;52.490;13.378;2024-03-08T02:23:19;69034.69;;;-146.10;100.00
12763;BME280;6445;52.490;13.378;2024-03-08T02:25:45;67331.34;;;-146.10;100.00
12763;BME280;6445;52.490;13.378;2024-03-08T02:28:11;67524.13;;;-146.10;100.00
12763;BME280;6445;52.490;13.378;2024-03-08T02:30:36;66265.09;;;-146.10;100.00
12763;BME280;6445;52.490;13.378;2024-03-08T02:33:02;67006.00;;;-146.10;100.00
12763;BME280;6445;52.490;13.378;2024-03-08T02:35:27;67586.38;;;-146.10;100.00
12763;BME280;6445;52.490;13.378;2024-03-08T02:37:52;69103.00;;;-146.10;100.00
12763;BME280;6445;52.490;13.378;2024-03-08T02:40:18;68990.47;;;-146.10;100.00
12763;BME280;6445;52.490;13.378;2024-03-08T02:42:43;68263.25;;;-146.10;100.00
12763;BME280;6445;52.490;13.378;2024-03-08T02:45:08;66180.78;;;-146.10;100.00
12763;BME280;6445;52.490;13.378;2024-03-08T02:47:35;66040.25;;;-146.10;100.00
12763;BME280;6445;52.490;13.378;2024-03-08T02:50:00;67164.66;;;-146.10;100.00
12763;BME280;6445;52.490;13.378;2024-03-08T02:52:26;67731.00;;;-146.10;100.00
12763;BME280;6445;52.490;13.378;2024-03-08T02:54:51;68855.88;;;-146.10;100.00
12763;BME280;6445;52.490;13.378;2024-03-08T02:57:17;67640.63;;;-146.10;100.00
12763;BME280;6445;52.490;13.378;2024-03-08T02:59:43;67498.03;;;-146.10;100.00
12763;BME280;6445;52.490;13.378;2024-03-08T03:02:08;68417.94;;;-146.10;100.00
12763;BME280;6445;52.490;13.378;2024-03-08T03:04:35;67230.94;;;-146.10;100.00
12763;BME280;6445;52.490;13.378;2024-03-08T03:07:00;68351.66;;;-146.10;100.00
12763;BME280;6445;52.490;13.378;2024-03-08T03:09:26;69121.06;;;-146.10;100.00
12763;BME280;6445;52.490;13.378;2024-03-08T03:11:56;68918.16;;;-146.10;100.00
12763;BME280;6445;52.490;13.378;2024-03-08T03:14:22;68558.56;;;-146.10;100.00
12763;BME280;6445;52.490;13.378;2024-03-08T03:16:47;65686.94;;;-146.10;100.00
12763;BME280;6445;52.490;13.378;2024-03-08T03:19:12;66200.84;;;-146.10;100.00
12763;BME280;6445;52.490;13.378;2024-03-08T03:21:38;67530.16;;;-146.10;100.00
12763;BME280;6445;52.490;13.378;2024-03-08T03:24:03;68265.28;;;-146.10;100.00
12763;BME280;6445;52.490;13.378;2024-03-08T03:26:30;68472.16;;;-146.10;100.00
12763;BME280;6445;52.490;13.378;2024-03-08T03:28:56;69840.41;;;-146.10;100.00
12763;BME280;6445;52.490;13.378;2024-03-08T03:31:22;69113.03;;;-146.10;100.00
12763;BME280;6445;52.490;13.378;2024-03-08T03:33:49;70011.22;;;-146.10;100.00
12763;BME280;6445;52.490;13.378;2024-03-08T03:36:16;69852.47;;;-146.10;100.00
12763;BME280;6445;52.490;13.378;2024-03-08T03:38:43;68136.72;;;-146.10;100.00
12763;BME280;6445;52.490;13.378;2024-03-08T03:41:08;66379.53;;;-146.10;100.00
12763;BME280;6445;52.490;13.378;2024-03-08T03:43:37;65783.28;;;-146.10;100.00
12763;BME280;6445;52.490;13.378;2024-03-08T03:46:07;64247.88;;;-146.10;100.00
12763;BME280;6445;52.490;13.378;2024-03-08T03:48:32;62586.69;;;-146.10;100.00
12763;BME280;6445;52.490;13.378;2024-03-08T03:50:57;62233.69;;;-146.10;100.00
12763;BME280;6445;52.490;13.378;2024-03-08T03:53:23;65074.72;;;-146.10;100.00
12763;BME280;6445;52.490;13.378;2024-03-08T03:55:48;67124.50;;;-146.10;100.00
12763;BME280;6445;52.490;13.378;2024-03-08T03:58:14;67604.47;;;-146.10;100.00
12763;BME280;6445;52.490;13.378;2024-03-08T04:00:39;68054.38;;;-146.10;100.00
12763;BME280;6445;52.490;13.378;2024-03-08T04:03:05;68530.44;;;-146.10;100.00
12763;BME280;6445;52.490;13.378;2024-03-08T04:05:31;66702.81;;;-146.10;100.00
12763;BME280;6445;52.490;13.378;2024-03-08T04:07:56;65365.75;;;-146.10;100.00
12763;BME280;6445;52.490;13.378;2024-03-08T04:10:22;67086.34;;;-146.10;100.00
12763;BME280;6445;52.490;13.378;2024-03-08T04:12:47;69185.34;;;-146.10;100.00
12763;BME280;6445;52.490;13.378;2024-03-08T04:15:12;71689.56;;;-146.10;100.00
12763;BME280;6445;52.490;13.378;2024-03-08T04:17:37;72839.69;;;-146.10;100.00
12763;BME280;6445;52.490;13.378;2024-03-08T04:20:03;75181.19;;;-146.10;100.00
12763;BME280;6445;52.490;13.378;2024-03-08T04:22:35;75869.41;;;-146.10;100.00
12763;BME280;6445;52.490;13.378;2024-03-08T04:25:02;75766.78;;;-146.10;100.00
12763;BME280;6445;52.490;13.378;2024-03-08T04:27:27;72984.47;;;-146.10;100.00
12763;BME280;6445;52.490;13.378;2024-03-08T04:29:52;72264.59;;;-146.10;100.00
12763;BME280;6445;52.490;13.378;2024-03-08T04:32:17;73859.41;;;-146.10;100.00
12763;BME280;6445;52.490;13.378;2024-03-08T04:34:43;76334.31;;;-146.10;100.00
12763;BME280;6445;52.490;13.378;2024-03-08T04:37:09;77828.06;;;-146.10;100.00
12763;BME280;6445;52.490;13.378;2024-03-08T04:39:38;78816.81;;;-146.10;100.00
12763;BME280;6445;52.490;13.378;2024-03-08T04:42:04;76167.28;;;-146.10;100.00
12763;BME280;6445;52.490;13.378;2024-03-08T04:44:31;76060.59;;;-146.10;100.00
12763;BME280;6445;52.490;13.378;2024-03-08T04:46:58;77755.59;;;-146.10;100.00
12763;BME280;6445;52.490;13.378;2024-03-08T04:49:23;79247.84;;;-146.10;100.00
12763;BME280;6445;52.490;13.378;2024-03-08T04:51:49;79898.50;;;-146.10;100.00
12763;BME280;6445;52.490;13.378;2024-03-08T04:54:14;77592.50;;;-146.10;100.00
12763;BME280;6445;52.490;13.378;2024-03-08T04:56:39;75259.66;;;-146.10;100.00
12763;BME280;6445;52.490;13.378;2024-03-08T04:59:04;73694.47;;;-146.10;100.00
12763;BME280;6445;52.490;13.378;2024-03-08T05:01:33;71709.66;;;-146.10;100.00
12763;BME280;6445;52.490;13.378;2024-03-08T05:03:58;71798.13;;;-146.10;100.00
12763;BME280;6445;52.490;13.378;2024-03-08T05:06:23;73223.81;;;-146.10;100.00
12763;BME280;6445;52.490;13.378;2024-03-08T05:08:48;74452.84;;;-146.10;100.00
12763;BME280;6445;52.490;13.378;2024-03-08T05:11:14;76511.47;;;-146.10;100.00
12763;BME280;6445;52.490;13.378;2024-03-08T05:13:40;77161.66;;;-146.10;100.00
12763;BME280;6445;52.490;13.378;2024-03-08T05:16:05;79705.09;;;-146.10;100.00
12763;BME280;6445;52.490;13.378;2024-03-08T05:18:32;81724.09;;;-146.10;100.00
12763;BME280;6445;52.490;13.378;2024-03-08T05:20:57;82996.06;;;-146.10;100.00
12763;BME280;6445;52.490;13.378;2024-03-08T05:23:23;84685.91;;;-146.10;100.00
12763;BME280;6445;52.490;13.378;2024-03-08T05:25:48;84691.94;;;-146.10;100.00
12763;BME280;6445;52.490;13.378;2024-03-08T05:28:13;85341.47;;;-146.10;100.00
12763;BME280;6445;52.490;13.378;2024-03-08T05:30:39;85569.41;;;-146.10;100.00
12763;BME280;6445;52.490;13.378;2024-03-08T05:33:04;85527.06;;;-146.10;100.00
12763;BME280;6445;52.490;13.378;2024-03-08T05:35:29;86437.00;;;-146.10;100.00
12763;BME280;6445;52.490;13.378;2024-03-08T05:37:55;85036.88;;;-146.10;100.00
12763;BME280;6445;52.490;13.378;2024-03-08T05:40:20;85454.44;;;-146.10;100.00
12763;BME280;6445;52.490;13.378;2024-03-08T05:42:45;84841.22;;;-146.10;100.00
12763;BME280;6445;52.490;13.378;2024-03-08T05:45:11;85111.50;;;-146.10;100.00
12763;BME280;6445;52.490;13.378;2024-03-08T05:47:39;85837.75;;;-146.10;100.00
12763;BME280;6445;52.490;13.378;2024-03-08T05:50:04;86067.75;;;-146.10;100.00
12763;BME280;6445;52.490;13.378;2024-03-08T05:52:30;85545.22;;;-146.10;100.00
12763;BME280;6445;52.490;13.378;2024-03-08T05:54:55;83776.34;;;-146.10;100.00
12763;BME280;6445;52.490;13.378;2024-03-08T05:57:20;83383.16;;;-146.10;100.00
12763;BME280;6445;52.490;13.378;2024-03-08T05:59:48;82538.41;;;-146.10;100.00
12763;BME280;6445;52.490;13.378;2024-03-08T06:02:13;82824.69;;;-146.10;100.00
12763;BME280;6445;52.490;13.378;2024-03-08T06:04:43;82439.66;;;-146.10;100.00
12763;BME280;6445;52.490;13.378;2024-03-08T06:07:09;81750.28;;;-146.10;100.00
12763;BME280;6445;52.490;13.378;2024-03-08T06:09:37;76893.91;;;-146.10;100.00
12763;BME280;6445;52.490;13.378;2024-03-08T06:12:03;68526.41;;;-146.10;100.00
12763;BME280;6445;52.490;13.378;2024-03-08T06:14:29;63308.88;;;-146.10;100.00
12763;BME280;6445;52.490;13.378;2024-03-08T06:16:55;58500.91;;;-146.10;99.27
12763;BME280;6445;52.490;13.378;2024-03-08T06:19:20;56273.31;;;-146.10;96.29
12763;BME280;6445;52.490;13.378;2024-03-08T06:21:45;55238.09;;;-146.10;94.66
12763;BME280;6445;52.490;13.378;2024-03-08T06:24:10;54157.09;;;-146.10;92.90
12763;BME280;6445;52.490;13.378;2024-03-08T06:26:36;53860.88;;;-146.10;92.66
12763;BME280;6445;52.490;13.378;2024-03-08T06:29:03;54269.19;;;-146.10;93.63
12763;BME280;6445;52.490;13.378;2024-03-08T06:31:31;54727.59;;;-146.10;94.32
12763;BME280;6445;52.490;13.378;2024-03-08T06:33:57;54401.28;;;-146.10;93.32
12763;BME280;6445;52.490;13.378;2024-03-08T06:36:23;54173.09;;;-146.10;93.15
12763;BME280;6445;52.490;13.378;2024-03-08T06:38:49;54249.16;;;-146.10;93.07
12763;BME280;6445;52.490;13.378;2024-03-08T06:41:14;54123.06;;;-146.10;92.52
12763;BME280;6445;52.490;13.378;2024-03-08T06:43:43;53912.91;;;-146.10;92.36
12763;BME280;6445;52.490;13.378;2024-03-08T06:46:08;53692.75;;;-146.10;91.39
12763;BME280;6445;52.490;13.378;2024-03-08T06:48:34;53290.50;;;-146.10;89.86
12763;BME280;6445;52.490;13.378;2024-03-08T06:51:00;53006.34;;;-146.10;88.97
12763;BME280;6445;52.490;13.378;2024-03-08T06:53:25;52606.16;;;-146.10;85.45
12763;BME280;6445;52.490;13.378;2024-03-08T06:55:50;52104.00;;;-146.10;81.23
12763;BME280;6445;52.490;13.378;2024-03-08T06:58:16;51969.97;;;-146.10;79.50
12763;BME280;6445;52.490;13.378;2024-03-08T07:00:41;52037.97;;;-146.10;81.59
12763;BME280;6445;52.490;13.378;2024-03-08T07:03:08;52027.97;;;-146.10;81.18
12763;BME280;6445;52.490;13.378;2024-03-08T07:05:37;52029.97;;;-146.10;80.92
12763;BME280;6445;52.490;13.378;2024-03-08T07:08:02;52148.00;;;-146.10;82.68
12763;BME280;6445;52.490;13.378;2024-03-08T07:10:27;52041.97;;;-146.10;80.10
12763;BME280;6445;52.490;13.378;2024-03-08T07:12:53;51907.94;;;-146.10;77.38
12763;BME280;6445;52.490;13.378;2024-03-08T07:15:19;51881.94;;;-146.10;75.86
12763;BME280;6445;52.490;13.378;2024-03-08T07:17:47;51849.94;;;-146.10;74.60
12763;BME280;6445;52.490;13.378;2024-03-08T07:20:14;51851.94;;;-146.10;74.43
12763;BME280;6445;52.490;13.378;2024-03-08T07:22:40;51841.94;;;-146.10;72.02
12763;BME280;6445;52.490;13.378;2024-03-08T07:25:06;51823.94;;;-146.10;71.17
12763;BME280;6445;52.490;13.378;2024-03-08T07:27:48;51819.94;;;-146.10;70.12
12763;BME280;6445;52.490;13.378;2024-03-08T07:30:14;51839.94;;;-146.10;69.51
12763;BME280;6445;52.490;13.378;2024-03-08T07:32:59;51855.94;;;-146.10;68.00
12763;BME280;6445;52.490;13.378;2024-03-08T07:35:24;51819.94;;;-146.10;65.87
12763;BME280;6445;52.490;13.378;2024-03-08T07:37:52;51849.94;;;-146.10;64.04
12763;BME280;6445;52.490;13.378;2024-03-08T07:40:20;51839.94;;;-146.10;62.00
12763;BME280;6445;52.490;13.378;2024-03-08T07:42:45;51869.94;;;-146.10;58.73
12763;BME280;6445;52.490;13.378;2024-03-08T07:45:10;51865.94;;;-146.10;56.60
12763;BME280;6445;52.490;13.378;2024-03-08T07:47:36;51881.94;;;-146.10;55.52
12763;BME280;6445;52.490;13.378;2024-03-08T07:50:01;51935.94;;;-146.10;51.25
12763;BME280;6445;52.490;13.378;2024-03-08T07:52:27;51935.94;;;-146.10;48.58
12763;BME280;6445;52.490;13.378;2024-03-08T07:54:52;51941.94;;;-146.10;48.57
12763;BME280;6445;52.490;13.378;2024-03-08T07:57:17;51913.94;;;-146.10;49.56
12763;BME280;6445;52.490;13.378;2024-03-08T07:59:43;51905.94;;;-146.10;49.89
12763;BME280;6445;52.490;13.378;2024-03-08T08:02:08;51931.94;;;-146.10;49.41
12763;BME280;6445;52.490;13.378;2024-03-08T08:04:33;51927.94;;;-146.10;47.35
12763;BME280;6445;52.490;13.378;2024-03-08T08:06:58;51947.97;;;-146.10;46.57
12763;BME280;6445;52.490;13.378;2024-03-08T08:09:24;51913.94;;;-146.10;47.88
12763;BME280;6445;52.490;13.378;2024-03-08T08:11:56;51935.94;;;-146.10;48.03
12763;BME280;6445;52.490;13.378;2024-03-08T08:14:22;51911.94;;;-146.10;47.74
12763;BME280;6445;52.490;13.378;2024-03-08T08:16:47;51927.94;;;-146.10;47.19
12763;BME280;6445;52.490;13.378;2024-03-08T08:19:15;51959.97;;;-146.10;45.45
12763;BME280;6445;52.490;13.378;2024-03-08T08:21:40;51955.97;;;-146.10;44.36
12763;BME280;6445;52.490;13.378;2024-03-08T08:24:06;51973.97;;;-146.10;44.60
12763;BME280;6445;52.490;13.378;2024-03-08T08:26:32;51983.97;;;-146.10;44.22
12763;BME280;6445;52.490;13.378;2024-03-08T08:28:59;51979.97;;;-146.10;43.24
12763;BME280;6445;52.490;13.378;2024-03-08T08:31:24;51967.97;;;-146.10;43.01
12763;BME280;6445;52.490;13.378;2024-03-08T08:33:50;51999.97;;;-146.10;41.90
12763;BME280;6445;52.490;13.378;2024-03-08T08:36:15;51985.97;;;-146.10;42.88
12763;BME280;6445;52.490;13.378;2024-03-08T08:38:40;51947.97;;;-146.10;44.44
12763;BME280;6445;52.490;13.378;2024-03-08T08:41:09;51997.97;;;-146.10;41.53
12763;BME280;6445;52.490;13.378;2024-03-08T08:43:34;51995.97;;;-146.10;41.56
12763;BME280;6445;52.490;13.378;2024-03-08T08:46:00;51991.97;;;-146.10;41.23
12763;BME280;6445;52.490;13.378;2024-03-08T08:48:26;52013.97;;;-146.10;39.67
12763;BME280;6445;52.490;13.378;2024-03-08T08:50:53;51983.97;;;-146.10;40.19
12763;BME280;6445;52.490;13.378;2024-03-08T08:53:18;52057.97;;;-146.10;38.99
12763;BME280;6445;52.490;13.378;2024-03-08T08:55:43;52045.97;;;-146.10;38.74
12763;BME280;6445;52.490;13.378;2024-03-08T08:58:10;52047.97;;;-146.10;37.12
12763;BME280;6445;52.490;13.378;2024-03-08T09:00:36;52035.97;;;-146.10;37.06
12763;BME280;6445;52.490;13.378;2024-03-08T09:03:02;51985.97;;;-146.10;39.40
12763;BME280;6445;52.490;13.378;2024-03-08T09:05:27;52021.97;;;-146.10;38.54
12763;BME280;6445;52.490;13.378;2024-03-08T09:07:52;51983.97;;;-146.10;39.31
12763;BME280;6445;52.490;13.378;2024-03-08T09:10:18;52037.97;;;-146.10;38.53
12763;BME280;6445;52.490;13.378;2024-03-08T09:12:44;51989.97;;;-146.10;39.48
12763;BME280;6445;52.490;13.378;2024-03-08T09:15:09;52015.97;;;-146.10;39.15
12763;BME280;6445;52.490;13.378;2024-03-08T09:17:36;51965.97;;;-146.10;39.54
12763;BME280;6445;52.490;13.378;2024-03-08T09:20:05;51991.97;;;-146.10;39.33
12763;BME280;6445;52.490;13.378;2024-03-08T09:22:31;52011.97;;;-146.10;38.97
12763;BME280;6445;52.490;13.378;2024-03-08T09:24:57;52031.97;;;-146.10;38.48
12763;BME280;6445;52.490;13.378;2024-03-08T09:27:22;52041.97;;;-146.10;38.17
12763;BME280;6445;52.490;13.378;2024-03-08T09:29:47;52037.97;;;-146.10;37.72
12763;BME280;6445;52.490;13.378;2024-03-08T09:32:13;52063.97;;;-146.10;37.59
12763;BME280;6445;52.490;13.378;2024-03-08T09:34:38;52057.97;;;-146.10;37.10
12763;BME280;6445;52.490;13.378;2024-03-08T09:37:03;52084.00;;;-146.10;35.97
12763;BME280;6445;52.490;13.378;2024-03-08T09:39:29;52134.00;;;-146.10;35.11
12763;BME280;6445;52.490;13.378;2024-03-08T09:41:54;52080.00;;;-146.10;35.46
12763;BME280;6445;52.490;13.378;2024-03-08T09:44:20;52072.00;;;-146.10;35.50
12763;BME280;6445;52.490;13.378;2024-03-08T09:46:46;52027.97;;;-146.10;36.48
12763;BME280;6445;52.490;13.378;2024-03-08T09:49:19;52084.00;;;-146.10;35.50
12763;BME280;6445;52.490;13.378;2024-03-08T09:51:48;52025.97;;;-146.10;35.76
12763;BME280;6445;52.490;13.378;2024-03-08T09:54:16;52021.97;;;-146.10;35.91
12763;BME280;6445;52.490;13.378;2024-03-08T09:56:42;52035.97;;;-146.10;35.64
12763;BME280;6445;52.490;13.378;2024-03-08T09:59:09;52011.97;;;-146.10;36.18
12763;BME280;6445;52.490;13.378;2024-03-08T10:01:53;51975.97;;;-146.10;36.50
12763;BME280;6445;52.490;13.378;2024-03-08T10:04:22;52041.97;;;-146.10;35.80
12763;BME280;6445;52.490;13.378;2024-03-08T10:06:47;51993.97;;;-146.10;36.84
12763;BME280;6445;52.490;13.378;2024-03-08T10:09:12;52053.97;;;-146.10;35.42
12763;BME280;6445;52.490;13.378;2024-03-08T10:11:39;52078.00;;;-146.10;34.67
12763;BME280;6445;52.490;13.378;2024-03-08T10:14:05;52080.00;;;-146.10;34.53
12763;BME280;6445;52.490;13.378;2024-03-08T10:16:31;52011.97;;;-146.10;34.95
12763;BME280;6445;52.490;13.378;2024-03-08T10:18:56;52031.97;;;-146.10;35.02
12763;BME280;6445;52.490;13.378;2024-03-08T10:21:22;52003.97;;;-146.10;35.47
12763;BME280;6445;52.490;13.378;2024-03-08T10:23:48;52011.97;;;-146.10;35.46
12763;BME280;6445;52.490;13.378;2024-03-08T10:26:17;51995.97;;;-146.10;35.69
12763;BME280;6445;52.490;13.378;2024-03-08T10:28:50;52065.97;;;-146.10;34.67
12763;BME280;6445;52.490;13.378;2024-03-08T10:31:16;52110.00;;;-146.10;34.05
12763;BME280;6445;52.490;13.378;2024-03-08T10:33:41;52140.00;;;-146.10;33.11
12763;BME280;6445;52.490;13.378;2024-03-08T10:36:07;52088.00;;;-146.10;33.41
12763;BME280;6445;52.490;13.378;2024-03-08T10:38:36;52102.00;;;-146.10;33.35
12763;BME280;6445;52.490;13.378;2024-03-08T10:41:03;52047.97;;;-146.10;34.59
12763;BME280;6445;52.490;13.378;2024-03-08T10:43:49;52063.97;;;-146.10;33.60
12763;BME280;6445;52.490;13.378;2024-03-08T10:46:49;52116.00;;;-146.10;32.85
12763;BME280;6445;52.490;13.378;2024-03-08T10:49:17;52045.97;;;-146.10;32.96
12763;BME280;6445;52.490;13.378;2024-03-08T10:51:43;52037.97;;;-146.10;33.09
12763;BME280;6445;52.490;13.378;2024-03-08T10:54:10;52065.97;;;-146.10;32.86
12763;BME280;6445;52.490;13.378;2024-03-08T10:56:36;52070.00;;;-146.10;33.33
12763;BME280;6445;52.490;13.378;2024-03-08T10:59:01;52033.97;;;-146.10;34.08
12763;BME280;6445;52.490;13.378;2024-03-08T11:01:29;52009.97;;;-146.10;34.55
12763;BME280;6445;52.490;13.378;2024-03-08T11:03:55;52023.97;;;-146.10;34.24
12763;BME280;6445;52.490;13.378;2024-03-08T11:06:41;52057.97;;;-146.10;33.52
12763;BME280;6445;52.490;13.378;2024-03-08T11:09:33;52078.00;;;-146.10;36.59
12763;BME280;6445;52.490;13.378;2024-03-08T11:12:19;52080.00;;;-146.10;32.98
12763;BME280;6445;52.490;13.378;2024-03-08T11:14:48;52039.97;;;-146.10;33.70
12763;BME280;6445;52.490;13.378;2024-03-08T11:17:15;52029.97;;;-146.10;34.27
12763;BME280;6445;52.490;13.378;2024-03-08T11:19:48;52055.97;;;-146.10;36.31
12763;BME280;6445;52.490;13.378;2024-03-08T11:22:27;52047.97;;;-146.10;34.52
12763;BME280;6445;52.490;13.378;2024-03-08T11:24:53;52037.97;;;-146.10;36.18
12763;BME280;6445;52.490;13.378;2024-03-08T11:27:19;52061.97;;;-146.10;34.79
12763;BME280;6445;52.490;13.378;2024-03-08T11:30:01;52106.00;;;-146.10;36.14
12763;BME280;6445;52.490;13.378;2024-03-08T11:32:35;51977.97;;;-146.10;34.43
12763;BME280;6445;52.490;13.378;2024-03-08T11:35:02;52017.97;;;-146.10;35.90
12763;BME280;6445;52.490;13.378;2024-03-08T11:37:33;51997.97;;;-146.10;35.46
12763;BME280;6445;52.490;13.378;2024-03-08T11:40:05;52037.97;;;-146.10;38.50
12763;BME280;6445;52.490;13.378;2024-03-08T11:42:37;51987.97;;;-146.10;34.73
12763;BME280;6445;52.490;13.378;2024-03-08T11:45:08;51953.97;;;-146.10;35.61
12763;BME280;6445;52.490;13.378;2024-03-08T11:47:34;51957.97;;;-146.10;35.84
12763;BME280;6445;52.490;13.378;2024-03-08T11:50:00;51975.97;;;-146.10;35.46
12763;BME280;6445;52.490;13.378;2024-03-08T11:52:25;51953.97;;;-146.10;36.08
12763;BME280;6445;52.490;13.378;2024-03-08T11:54:54;52001.97;;;-146.10;36.70
12763;BME280;6445;52.490;13.378;2024-03-08T11:57:22;51995.97;;;-146.10;34.28
12763;BME280;6445;52.490;13.378;2024-03-08T11:59:52;52001.97;;;-146.10;33.75
12763;BME280;6445;52.490;13.378;2024-03-08T12:02:17;51973.97;;;-146.10;33.77
12763;BME280;6445;52.490;13.378;2024-03-08T12:04:44;51977.97;;;-146.10;33.84
12763;BME280;6445;52.490;13.378;2024-03-08T12:07:11;51979.97;;;-146.10;32.70
12763;BME280;6445;52.490;13.378;2024-03-08T12:09:38;51995.97;;;-146.10;32.62
12763;BME280;6445;52.490;13.378;2024-03-08T12:12:03;51999.97;;;-146.10;32.79
12763;BME280;6445;52.490;13.378;2024-03-08T12:14:30;52005.97;;;-146.10;32.79
12763;BME280;6445;52.490;13.378;2024-03-08T12:16:55;52023.97;;;-146.10;34.68
12763;BME280;6445;52.490;13.378;2024-03-08T12:19:20;51999.97;;;-146.10;35.11
12763;BME280;6445;52.490;13.378;2024-03-08T12:21:46;51993.97;;;-146.10;37.22
12763;BME280;6445;52.490;13.378;2024-03-08T12:24:16;51977.97;;;-146.10;35.86
12763;BME280;6445;52.490;13.378;2024-03-08T12:26:45;51965.97;;;-146.10;35.58
12763;BME280;6445;52.490;13.378;2024-03-08T12:29:18;51959.97;;;-146.10;36.47
12763;BME280;6445;52.490;13.378;2024-03-08T12:31:46;51945.97;;;-146.10;36.72
12763;BME280;6445;52.490;13.378;2024-03-08T12:34:13;51953.97;;;-146.10;36.78